Weather at Birmingham-Shuttlesworth International Airport

Public forecast

Using degrees Fahrenheit for public forecast. Weather courtesy of forecast.io.

Current aviation weather report (METAR) for Birmingham-Shuttlesworth International Airport

Retrieved 2020/12/01 03:53 UTC (59 minutes ago):

KBHM 010353Z 27008KT 10SM FEW041 BKN065 BKN150 M01/M05 A3016 RMK AO2 SLP216 T10061050

Aviation forecast (TAF) for Birmingham-Shuttlesworth International Airport

Retrieved 2020-12-01 00:42 UTC (4 hours ago):

TAF KBHM 302340Z 0100/0124 30010G22KT P6SM OVC060 FM010500 30007KT P6SM SCT250 FM011400 27010KT P6SM SKC